sensor_id;sensor_type;location;lat;lon;timestamp;P1;durP1;ratioP1;P2;durP2;ratioP2
50483;SDS011;36409;52.168;20.878;2023-11-21T00:01:42;27.57;;;15.27;;
50483;SDS011;36409;52.168;20.878;2023-11-21T00:04:11;31.07;;;17.00;;
50483;SDS011;36409;52.168;20.878;2023-11-21T00:06:43;31.30;;;17.15;;
50483;SDS011;36409;52.168;20.878;2023-11-21T00:09:14;31.47;;;16.50;;
50483;SDS011;36409;52.168;20.878;2023-11-21T00:11:45;33.03;;;16.97;;
50483;SDS011;36409;52.168;20.878;2023-11-21T00:14:14;33.47;;;16.17;;
50483;SDS011;36409;52.168;20.878;2023-11-21T00:16:43;30.47;;;16.80;;
50483;SDS011;36409;52.168;20.878;2023-11-21T00:19:12;33.73;;;16.53;;
50483;SDS011;36409;52.168;20.878;2023-11-21T00:21:43;32.63;;;16.53;;
50483;SDS011;36409;52.168;20.878;2023-11-21T00:24:12;35.83;;;18.37;;
50483;SDS011;36409;52.168;20.878;2023-11-21T00:26:41;33.57;;;18.13;;
50483;SDS011;36409;52.168;20.878;2023-11-21T00:29:11;34.63;;;18.37;;
50483;SDS011;36409;52.168;20.878;2023-11-21T00:31:40;38.65;;;18.00;;
50483;SDS011;36409;52.168;20.878;2023-11-21T00:34:09;36.33;;;18.87;;
50483;SDS011;36409;52.168;20.878;2023-11-21T00:36:39;34.57;;;19.93;;
50483;SDS011;36409;52.168;20.878;2023-11-21T00:39:09;33.85;;;19.85;;
50483;SDS011;36409;52.168;20.878;2023-11-21T00:41:39;36.70;;;21.40;;
50483;SDS011;36409;52.168;20.878;2023-11-21T00:44:09;39.97;;;21.47;;
50483;SDS011;36409;52.168;20.878;2023-11-21T00:46:39;35.73;;;19.60;;
50483;SDS011;36409;52.168;20.878;2023-11-21T00:49:10;40.67;;;21.47;;
50483;SDS011;36409;52.168;20.878;2023-11-21T00:51:39;38.30;;;22.10;;
50483;SDS011;36409;52.168;20.878;2023-11-21T00:54:08;37.97;;;21.00;;
50483;SDS011;36409;52.168;20.878;2023-11-21T00:56:39;40.30;;;22.30;;
50483;SDS011;36409;52.168;20.878;2023-11-21T00:59:08;32.93;;;20.60;;
50483;SDS011;36409;52.168;20.878;2023-11-21T01:01:38;38.40;;;21.67;;
50483;SDS011;36409;52.168;20.878;2023-11-21T01:04:10;37.13;;;21.87;;
50483;SDS011;36409;52.168;20.878;2023-11-21T01:06:39;37.20;;;21.47;;
50483;SDS011;36409;52.168;20.878;2023-11-21T01:09:09;46.07;;;22.90;;
50483;SDS011;36409;52.168;20.878;2023-11-21T01:11:42;40.50;;;24.20;;
50483;SDS011;36409;52.168;20.878;2023-11-21T01:14:11;43.83;;;23.73;;
50483;SDS011;36409;52.168;20.878;2023-11-21T01:16:41;42.73;;;21.47;;
50483;SDS011;36409;52.168;20.878;2023-11-21T01:19:10;41.53;;;22.60;;
50483;SDS011;36409;52.168;20.878;2023-11-21T01:21:40;46.73;;;25.13;;
50483;SDS011;36409;52.168;20.878;2023-11-21T01:24:10;46.77;;;24.23;;
50483;SDS011;36409;52.168;20.878;2023-11-21T01:26:38;49.33;;;22.77;;
50483;SDS011;36409;52.168;20.878;2023-11-21T01:29:08;49.97;;;25.53;;
50483;SDS011;36409;52.168;20.878;2023-11-21T01:31:37;41.77;;;24.10;;
50483;SDS011;36409;52.168;20.878;2023-11-21T01:34:06;43.83;;;23.40;;
50483;SDS011;36409;52.168;20.878;2023-11-21T01:36:35;43.57;;;23.93;;
50483;SDS011;36409;52.168;20.878;2023-11-21T01:39:06;41.10;;;22.47;;
50483;SDS011;36409;52.168;20.878;2023-11-21T01:41:36;43.70;;;23.53;;
50483;SDS011;36409;52.168;20.878;2023-11-21T01:44:05;40.97;;;21.83;;
50483;SDS011;36409;52.168;20.878;2023-11-21T01:46:36;47.90;;;24.60;;
50483;SDS011;36409;52.168;20.878;2023-11-21T01:49:09;44.90;;;22.93;;
50483;SDS011;36409;52.168;20.878;2023-11-21T01:51:41;38.97;;;23.10;;
50483;SDS011;36409;52.168;20.878;2023-11-21T01:54:11;45.63;;;22.50;;
50483;SDS011;36409;52.168;20.878;2023-11-21T01:56:45;38.92;;;21.48;;
50483;SDS011;36409;52.168;20.878;2023-11-21T01:59:19;38.80;;;21.95;;
50483;SDS011;36409;52.168;20.878;2023-11-21T02:01:49;44.80;;;22.83;;
50483;SDS011;36409;52.168;20.878;2023-11-21T02:04:19;37.37;;;21.23;;
50483;SDS011;36409;52.168;20.878;2023-11-21T02:06:49;40.70;;;21.43;;
50483;SDS011;36409;52.168;20.878;2023-11-21T02:09:23;37.87;;;21.03;;
50483;SDS011;36409;52.168;20.878;2023-11-21T02:11:54;42.03;;;21.47;;
50483;SDS011;36409;52.168;20.878;2023-11-21T02:14:26;34.27;;;18.77;;
50483;SDS011;36409;52.168;20.878;2023-11-21T02:16:55;43.57;;;21.50;;
50483;SDS011;36409;52.168;20.878;2023-11-21T02:19:25;39.40;;;20.80;;
50483;SDS011;36409;52.168;20.878;2023-11-21T02:21:56;41.43;;;23.47;;
50483;SDS011;36409;52.168;20.878;2023-11-21T02:24:28;40.83;;;22.63;;
50483;SDS011;36409;52.168;20.878;2023-11-21T02:26:57;36.27;;;20.30;;
50483;SDS011;36409;52.168;20.878;2023-11-21T02:29:27;36.03;;;21.37;;
50483;SDS011;36409;52.168;20.878;2023-11-21T02:31:57;39.93;;;21.57;;
50483;SDS011;36409;52.168;20.878;2023-11-21T02:34:27;31.93;;;17.23;;
50483;SDS011;36409;52.168;20.878;2023-11-21T02:36:56;31.10;;;18.17;;
50483;SDS011;36409;52.168;20.878;2023-11-21T02:39:25;29.57;;;17.80;;
50483;SDS011;36409;52.168;20.878;2023-11-21T02:41:54;30.17;;;17.67;;
50483;SDS011;36409;52.168;20.878;2023-11-21T02:44:23;25.90;;;15.67;;
50483;SDS011;36409;52.168;20.878;2023-11-21T02:46:53;31.70;;;18.07;;
50483;SDS011;36409;52.168;20.878;2023-11-21T02:49:25;30.93;;;19.00;;
50483;SDS011;36409;52.168;20.878;2023-11-21T02:51:55;31.90;;;19.27;;
50483;SDS011;36409;52.168;20.878;2023-11-21T02:54:24;33.13;;;18.97;;
50483;SDS011;36409;52.168;20.878;2023-11-21T02:56:54;30.40;;;17.97;;
50483;SDS011;36409;52.168;20.878;2023-11-21T02:59:24;26.30;;;16.47;;
50483;SDS011;36409;52.168;20.878;2023-11-21T03:01:53;27.73;;;17.50;;
50483;SDS011;36409;52.168;20.878;2023-11-21T03:04:25;30.03;;;18.17;;
50483;SDS011;36409;52.168;20.878;2023-11-21T03:06:54;34.00;;;18.97;;
50483;SDS011;36409;52.168;20.878;2023-11-21T03:09:23;29.87;;;18.57;;
50483;SDS011;36409;52.168;20.878;2023-11-21T03:11:54;33.73;;;18.60;;
50483;SDS011;36409;52.168;20.878;2023-11-21T03:14:23;28.53;;;17.93;;
50483;SDS011;36409;52.168;20.878;2023-11-21T03:16:52;30.30;;;18.47;;
50483;SDS011;36409;52.168;20.878;2023-11-21T03:19:21;29.73;;;18.63;;
50483;SDS011;36409;52.168;20.878;2023-11-21T03:21:50;30.37;;;17.37;;
50483;SDS011;36409;52.168;20.878;2023-11-21T03:24:24;31.33;;;18.07;;
50483;SDS011;36409;52.168;20.878;2023-11-21T03:26:53;30.17;;;19.17;;
50483;SDS011;36409;52.168;20.878;2023-11-21T03:29:22;27.53;;;17.10;;
50483;SDS011;36409;52.168;20.878;2023-11-21T03:31:51;33.30;;;17.47;;
50483;SDS011;36409;52.168;20.878;2023-11-21T03:34:24;33.47;;;19.10;;
50483;SDS011;36409;52.168;20.878;2023-11-21T03:36:55;29.57;;;18.53;;
50483;SDS011;36409;52.168;20.878;2023-11-21T03:39:24;29.87;;;19.40;;
50483;SDS011;36409;52.168;20.878;2023-11-21T03:41:53;31.57;;;18.20;;
50483;SDS011;36409;52.168;20.878;2023-11-21T03:44:23;29.83;;;18.60;;
50483;SDS011;36409;52.168;20.878;2023-11-21T03:46:52;31.80;;;20.23;;
50483;SDS011;36409;52.168;20.878;2023-11-21T03:49:22;31.67;;;19.30;;
50483;SDS011;36409;52.168;20.878;2023-11-21T03:51:53;33.07;;;18.73;;
50483;SDS011;36409;52.168;20.878;2023-11-21T03:54:24;29.90;;;18.23;;
50483;SDS011;36409;52.168;20.878;2023-11-21T03:56:53;29.97;;;18.40;;
50483;SDS011;36409;52.168;20.878;2023-11-21T03:59:23;30.30;;;18.37;;
50483;SDS011;36409;52.168;20.878;2023-11-21T04:01:52;32.10;;;18.07;;
50483;SDS011;36409;52.168;20.878;2023-11-21T04:04:24;28.27;;;16.50;;
50483;SDS011;36409;52.168;20.878;2023-11-21T04:06:53;29.10;;;18.77;;
50483;SDS011;36409;52.168;20.878;2023-11-21T04:09:23;30.43;;;17.53;;
50483;SDS011;36409;52.168;20.878;2023-11-21T04:11:52;30.63;;;18.57;;
50483;SDS011;36409;52.168;20.878;2023-11-21T04:14:23;29.00;;;18.00;;
50483;SDS011;36409;52.168;20.878;2023-11-21T04:16:52;35.07;;;18.97;;
50483;SDS011;36409;52.168;20.878;2023-11-21T04:19:22;33.33;;;19.17;;
50483;SDS011;36409;52.168;20.878;2023-11-21T04:21:51;31.73;;;19.87;;
50483;SDS011;36409;52.168;20.878;2023-11-21T04:24:20;29.97;;;17.37;;
50483;SDS011;36409;52.168;20.878;2023-11-21T04:26:48;33.33;;;18.37;;
50483;SDS011;36409;52.168;20.878;2023-11-21T04:29:17;29.73;;;17.20;;
50483;SDS011;36409;52.168;20.878;2023-11-21T04:31:46;28.00;;;17.27;;
50483;SDS011;36409;52.168;20.878;2023-11-21T04:34:16;29.77;;;18.67;;
50483;SDS011;36409;52.168;20.878;2023-11-21T04:36:45;29.57;;;17.33;;
50483;SDS011;36409;52.168;20.878;2023-11-21T04:39:17;28.60;;;17.60;;
50483;SDS011;36409;52.168;20.878;2023-11-21T04:41:47;26.50;;;15.60;;
50483;SDS011;36409;52.168;20.878;2023-11-21T04:44:16;33.07;;;18.23;;
50483;SDS011;36409;52.168;20.878;2023-11-21T04:46:46;31.23;;;17.97;;
50483;SDS011;36409;52.168;20.878;2023-11-21T04:49:15;25.50;;;15.97;;
50483;SDS011;36409;52.168;20.878;2023-11-21T04:51:44;26.17;;;15.67;;
50483;SDS011;36409;52.168;20.878;2023-11-21T04:54:13;23.10;;;13.07;;
50483;SDS011;36409;52.168;20.878;2023-11-21T04:56:43;21.65;;;14.50;;
50483;SDS011;36409;52.168;20.878;2023-11-21T04:59:17;25.53;;;15.43;;
50483;SDS011;36409;52.168;20.878;2023-11-21T05:01:49;26.73;;;15.60;;
50483;SDS011;36409;52.168;20.878;2023-11-21T05:04:18;23.93;;;13.93;;
50483;SDS011;36409;52.168;20.878;2023-11-21T05:06:49;23.30;;;14.57;;
50483;SDS011;36409;52.168;20.878;2023-11-21T05:09:18;21.80;;;14.33;;
50483;SDS011;36409;52.168;20.878;2023-11-21T05:11:46;17.33;;;11.77;;
50483;SDS011;36409;52.168;20.878;2023-11-21T05:14:18;22.07;;;13.43;;
50483;SDS011;36409;52.168;20.878;2023-11-21T05:16:50;19.87;;;11.90;;
50483;SDS011;36409;52.168;20.878;2023-11-21T05:19:19;21.30;;;12.87;;
50483;SDS011;36409;52.168;20.878;2023-11-21T05:21:48;20.40;;;13.40;;
50483;SDS011;36409;52.168;20.878;2023-11-21T05:24:18;22.23;;;13.53;;
50483;SDS011;36409;52.168;20.878;2023-11-21T05:26:46;22.43;;;12.97;;
50483;SDS011;36409;52.168;20.878;2023-11-21T05:29:15;19.93;;;12.10;;
50483;SDS011;36409;52.168;20.878;2023-11-21T05:31:45;23.37;;;14.20;;
50483;SDS011;36409;52.168;20.878;2023-11-21T05:34:18;22.23;;;13.57;;
50483;SDS011;36409;52.168;20.878;2023-11-21T05:36:48;23.57;;;14.40;;
50483;SDS011;36409;52.168;20.878;2023-11-21T05:39:17;24.50;;;13.60;;
50483;SDS011;36409;52.168;20.878;2023-11-21T05:41:47;27.15;;;15.45;;
50483;SDS011;36409;52.168;20.878;2023-11-21T05:44:17;23.00;;;14.83;;
50483;SDS011;36409;52.168;20.878;2023-11-21T05:46:48;25.10;;;13.93;;
50483;SDS011;36409;52.168;20.878;2023-11-21T05:49:19;21.87;;;14.67;;
50483;SDS011;36409;52.168;20.878;2023-11-21T05:51:49;23.67;;;14.63;;
50483;SDS011;36409;52.168;20.878;2023-11-21T05:54:21;21.70;;;13.33;;
50483;SDS011;36409;52.168;20.878;2023-11-21T05:56:51;23.97;;;14.57;;
50483;SDS011;36409;52.168;20.878;2023-11-21T05:59:20;22.43;;;14.03;;
50483;SDS011;36409;52.168;20.878;2023-11-21T06:01:50;23.90;;;13.27;;
50483;SDS011;36409;52.168;20.878;2023-11-21T06:04:20;18.70;;;10.53;;
50483;SDS011;36409;52.168;20.878;2023-11-21T06:06:51;22.83;;;13.43;;
50483;SDS011;36409;52.168;20.878;2023-11-21T06:09:21;18.33;;;11.97;;
50483;SDS011;36409;52.168;20.878;2023-11-21T06:11:50;20.40;;;11.63;;
50483;SDS011;36409;52.168;20.878;2023-11-21T06:14:19;20.80;;;12.40;;
50483;SDS011;36409;52.168;20.878;2023-11-21T06:16:50;19.17;;;11.07;;
50483;SDS011;36409;52.168;20.878;2023-11-21T06:19:20;17.07;;;11.03;;
50483;SDS011;36409;52.168;20.878;2023-11-21T06:21:49;16.23;;;11.40;;
50483;SDS011;36409;52.168;20.878;2023-11-21T06:24:18;18.93;;;10.90;;
50483;SDS011;36409;52.168;20.878;2023-11-21T06:26:48;19.30;;;11.60;;
50483;SDS011;36409;52.168;20.878;2023-11-21T06:29:18;17.10;;;10.93;;
50483;SDS011;36409;52.168;20.878;2023-11-21T06:31:46;19.47;;;11.37;;
50483;SDS011;36409;52.168;20.878;2023-11-21T06:34:15;21.03;;;11.60;;
50483;SDS011;36409;52.168;20.878;2023-11-21T06:36:44;16.10;;;11.03;;
50483;SDS011;36409;52.168;20.878;2023-11-21T06:39:14;16.40;;;11.50;;
50483;SDS011;36409;52.168;20.878;2023-11-21T06:41:44;17.83;;;11.20;;
50483;SDS011;36409;52.168;20.878;2023-11-21T06:44:13;19.87;;;11.67;;
50483;SDS011;36409;52.168;20.878;2023-11-21T06:46:42;19.60;;;11.53;;
50483;SDS011;36409;52.168;20.878;2023-11-21T06:49:12;20.73;;;12.73;;
50483;SDS011;36409;52.168;20.878;2023-11-21T06:51:41;18.97;;;12.17;;
50483;SDS011;36409;52.168;20.878;2023-11-21T06:54:10;18.33;;;11.83;;
50483;SDS011;36409;52.168;20.878;2023-11-21T06:56:41;22.63;;;12.93;;
50483;SDS011;36409;52.168;20.878;2023-11-21T06:59:10;19.50;;;11.43;;
50483;SDS011;36409;52.168;20.878;2023-11-21T07:01:39;17.23;;;10.63;;
50483;SDS011;36409;52.168;20.878;2023-11-21T07:04:09;18.50;;;11.03;;
50483;SDS011;36409;52.168;20.878;2023-11-21T07:06:38;19.20;;;11.47;;
50483;SDS011;36409;52.168;20.878;2023-11-21T07:09:08;18.63;;;11.00;;
50483;SDS011;36409;52.168;20.878;2023-11-21T07:11:38;15.57;;;10.20;;
50483;SDS011;36409;52.168;20.878;2023-11-21T07:14:11;17.30;;;11.63;;
50483;SDS011;36409;52.168;20.878;2023-11-21T07:16:40;17.20;;;10.83;;
50483;SDS011;36409;52.168;20.878;2023-11-21T07:19:09;19.07;;;11.00;;
50483;SDS011;36409;52.168;20.878;2023-11-21T07:21:39;16.80;;;10.20;;
50483;SDS011;36409;52.168;20.878;2023-11-21T07:24:08;18.47;;;11.03;;
50483;SDS011;36409;52.168;20.878;2023-11-21T07:26:40;16.47;;;10.73;;
50483;SDS011;36409;52.168;20.878;2023-11-21T07:29:09;18.70;;;10.67;;
50483;SDS011;36409;52.168;20.878;2023-11-21T07:31:41;17.10;;;10.00;;
50483;SDS011;36409;52.168;20.878;2023-11-21T07:34:10;18.27;;;10.67;;
50483;SDS011;36409;52.168;20.878;2023-11-21T07:36:39;17.33;;;11.23;;
50483;SDS011;36409;52.168;20.878;2023-11-21T07:39:08;17.90;;;11.73;;
50483;SDS011;36409;52.168;20.878;2023-11-21T07:41:37;15.83;;;9.90;;
50483;SDS011;36409;52.168;20.878;2023-11-21T07:44:12;18.17;;;10.77;;
50483;SDS011;36409;52.168;20.878;2023-11-21T07:46:42;19.53;;;10.90;;
50483;SDS011;36409;52.168;20.878;2023-11-21T07:49:13;18.27;;;10.90;;
50483;SDS011;36409;52.168;20.878;2023-11-21T07:51:43;18.07;;;10.83;;
50483;SDS011;36409;52.168;20.878;2023-11-21T07:54:13;14.53;;;10.33;;
50483;SDS011;36409;52.168;20.878;2023-11-21T07:56:41;19.87;;;11.57;;
50483;SDS011;36409;52.168;20.878;2023-11-21T07:59:11;18.43;;;11.70;;
50483;SDS011;36409;52.168;20.878;2023-11-21T08:01:41;16.03;;;10.33;;
50483;SDS011;36409;52.168;20.878;2023-11-21T08:04:12;18.00;;;10.43;;
50483;SDS011;36409;52.168;20.878;2023-11-21T08:06:42;19.23;;;10.90;;
50483;SDS011;36409;52.168;20.878;2023-11-21T08:09:11;16.73;;;10.40;;
50483;SDS011;36409;52.168;20.878;2023-11-21T08:11:42;17.93;;;11.17;;
50483;SDS011;36409;52.168;20.878;2023-11-21T08:14:11;16.20;;;10.27;;
50483;SDS011;36409;52.168;20.878;2023-11-21T08:16:42;16.45;;;10.10;;
50483;SDS011;36409;52.168;20.878;2023-11-21T08:19:20;16.57;;;11.13;;
50483;SDS011;36409;52.168;20.878;2023-11-21T08:21:51;18.33;;;10.93;;
50483;SDS011;36409;52.168;20.878;2023-11-21T08:24:24;19.90;;;11.00;;
50483;SDS011;36409;52.168;20.878;2023-11-21T08:26:54;18.60;;;11.20;;
50483;SDS011;36409;52.168;20.878;2023-11-21T08:29:24;18.80;;;12.13;;
50483;SDS011;36409;52.168;20.878;2023-11-21T08:31:54;20.23;;;11.47;;
50483;SDS011;36409;52.168;20.878;2023-11-21T08:34:23;17.17;;;10.93;;
50483;SDS011;36409;52.168;20.878;2023-11-21T08:36:53;15.35;;;10.40;;
50483;SDS011;36409;52.168;20.878;2023-11-21T08:39:23;20.30;;;11.83;;
50483;SDS011;36409;52.168;20.878;2023-11-21T08:41:52;21.57;;;11.47;;
50483;SDS011;36409;52.168;20.878;2023-11-21T08:44:23;16.17;;;9.77;;
50483;SDS011;36409;52.168;20.878;2023-11-21T08:46:53;16.43;;;10.23;;
50483;SDS011;36409;52.168;20.878;2023-11-21T08:49:24;23.03;;;10.90;;
50483;SDS011;36409;52.168;20.878;2023-11-21T08:51:55;16.83;;;10.73;;
50483;SDS011;36409;52.168;20.878;2023-11-21T08:54:26;17.27;;;11.17;;
50483;SDS011;36409;52.168;20.878;2023-11-21T08:56:55;18.10;;;12.27;;
50483;SDS011;36409;52.168;20.878;2023-11-21T08:59:25;18.50;;;11.97;;
50483;SDS011;36409;52.168;20.878;2023-11-21T09:01:54;19.07;;;11.13;;
50483;SDS011;36409;52.168;20.878;2023-11-21T09:04:24;20.90;;;12.13;;
50483;SDS011;36409;52.168;20.878;2023-11-21T09:06:53;19.87;;;12.13;;
50483;SDS011;36409;52.168;20.878;2023-11-21T09:09:22;23.23;;;12.40;;
50483;SDS011;36409;52.168;20.878;2023-11-21T09:11:59;18.13;;;12.37;;
50483;SDS011;36409;52.168;20.878;2023-11-21T09:14:29;24.50;;;11.87;;
50483;SDS011;36409;52.168;20.878;2023-11-21T09:17:03;19.67;;;11.90;;
50483;SDS011;36409;52.168;20.878;2023-11-21T09:19:38;20.03;;;12.60;;
50483;SDS011;36409;52.168;20.878;2023-11-21T09:22:08;21.63;;;13.63;;
50483;SDS011;36409;52.168;20.878;2023-11-21T09:24:37;20.60;;;12.85;;
50483;SDS011;36409;52.168;20.878;2023-11-21T09:27:07;22.93;;;12.17;;
50483;SDS011;36409;52.168;20.878;2023-11-21T09:29:38;19.97;;;12.63;;
50483;SDS011;36409;52.168;20.878;2023-11-21T09:32:07;18.00;;;10.97;;
50483;SDS011;36409;52.168;20.878;2023-11-21T09:34:39;24.43;;;12.87;;
50483;SDS011;36409;52.168;20.878;2023-11-21T09:37:09;19.87;;;12.10;;
50483;SDS011;36409;52.168;20.878;2023-11-21T09:39:38;18.20;;;11.25;;
50483;SDS011;36409;52.168;20.878;2023-11-21T09:42:10;25.63;;;13.70;;
50483;SDS011;36409;52.168;20.878;2023-11-21T09:44:45;28.83;;;14.67;;
50483;SDS011;36409;52.168;20.878;2023-11-21T09:47:27;21.83;;;13.07;;
50483;SDS011;36409;52.168;20.878;2023-11-21T09:49:57;23.63;;;13.47;;
50483;SDS011;36409;52.168;20.878;2023-11-21T09:52:30;21.48;;;13.38;;
50483;SDS011;36409;52.168;20.878;2023-11-21T09:55:00;21.90;;;13.10;;
50483;SDS011;36409;52.168;20.878;2023-11-21T09:57:33;24.20;;;13.50;;
50483;SDS011;36409;52.168;20.878;2023-11-21T10:00:04;21.60;;;13.65;;
50483;SDS011;36409;52.168;20.878;2023-11-21T10:02:39;20.80;;;13.40;;
50483;SDS011;36409;52.168;20.878;2023-11-21T10:05:11;21.17;;;12.70;;
50483;SDS011;36409;52.168;20.878;2023-11-21T10:07:42;25.35;;;13.75;;
50483;SDS011;36409;52.168;20.878;2023-11-21T10:10:13;23.47;;;14.77;;
50483;SDS011;36409;52.168;20.878;2023-11-21T10:12:44;21.10;;;13.77;;
50483;SDS011;36409;52.168;20.878;2023-11-21T10:15:22;21.57;;;13.97;;
50483;SDS011;36409;52.168;20.878;2023-11-21T10:17:53;22.77;;;14.77;;
50483;SDS011;36409;52.168;20.878;2023-11-21T10:20:23;27.43;;;14.40;;
50483;SDS011;36409;52.168;20.878;2023-11-21T10:22:53;21.47;;;13.80;;
50483;SDS011;36409;52.168;20.878;2023-11-21T10:25:24;21.83;;;13.67;;
50483;SDS011;36409;52.168;20.878;2023-11-21T10:27:57;24.37;;;13.70;;
50483;SDS011;36409;52.168;20.878;2023-11-21T10:30:29;22.50;;;13.37;;
50483;SDS011;36409;52.168;20.878;2023-11-21T10:33:04;24.20;;;14.47;;
50483;SDS011;36409;52.168;20.878;2023-11-21T10:35:39;24.53;;;13.73;;
50483;SDS011;36409;52.168;20.878;2023-11-21T10:38:14;24.33;;;13.73;;
50483;SDS011;36409;52.168;20.878;2023-11-21T10:40:45;22.07;;;13.13;;
50483;SDS011;36409;52.168;20.878;2023-11-21T10:43:15;24.37;;;14.30;;
50483;SDS011;36409;52.168;20.878;2023-11-21T10:45:46;20.83;;;14.13;;
50483;SDS011;36409;52.168;20.878;2023-11-21T10:48:15;21.90;;;13.27;;
50483;SDS011;36409;52.168;20.878;2023-11-21T10:50:45;30.47;;;17.70;;
50483;SDS011;36409;52.168;20.878;2023-11-21T10:53:15;27.40;;;13.93;;
50483;SDS011;36409;52.168;20.878;2023-11-21T10:55:44;25.03;;;14.93;;
50483;SDS011;36409;52.168;20.878;2023-11-21T10:58:14;22.07;;;14.17;;
50483;SDS011;36409;52.168;20.878;2023-11-21T11:00:44;26.77;;;15.30;;
50483;SDS011;36409;52.168;20.878;2023-11-21T11:03:13;22.63;;;13.27;;
50483;SDS011;36409;52.168;20.878;2023-11-21T11:05:45;21.10;;;12.63;;
50483;SDS011;36409;52.168;20.878;2023-11-21T11:08:18;20.17;;;13.28;;
50483;SDS011;36409;52.168;20.878;2023-11-21T11:10:53;20.57;;;13.77;;
50483;SDS011;36409;52.168;20.878;2023-11-21T11:13:24;19.00;;;12.53;;
50483;SDS011;36409;52.168;20.878;2023-11-21T11:15:56;22.07;;;13.53;;
50483;SDS011;36409;52.168;20.878;2023-11-21T11:18:29;22.30;;;14.03;;
50483;SDS011;36409;52.168;20.878;2023-11-21T11:21:00;23.03;;;14.10;;
50483;SDS011;36409;52.168;20.878;2023-11-21T11:23:44;26.43;;;14.73;;
50483;SDS011;36409;52.168;20.878;2023-11-21T11:26:31;23.20;;;13.37;;
50483;SDS011;36409;52.168;20.878;2023-11-21T11:29:13;21.60;;;13.47;;
50483;SDS011;36409;52.168;20.878;2023-11-21T11:31:55;23.00;;;14.07;;
50483;SDS011;36409;52.168;20.878;2023-11-21T11:34:39;21.43;;;12.87;;
50483;SDS011;36409;52.168;20.878;2023-11-21T11:37:15;19.67;;;12.27;;
50483;SDS011;36409;52.168;20.878;2023-11-21T11:39:44;22.50;;;13.37;;
50483;SDS011;36409;52.168;20.878;2023-11-21T11:42:15;24.53;;;14.17;;
50483;SDS011;36409;52.168;20.878;2023-11-21T11:44:48;22.57;;;12.23;;
50483;SDS011;36409;52.168;20.878;2023-11-21T11:47:24;25.50;;;15.47;;
50483;SDS011;36409;52.168;20.878;2023-11-21T11:50:06;23.65;;;14.65;;
50483;SDS011;36409;52.168;20.878;2023-11-21T11:52:41;25.63;;;12.90;;
50483;SDS011;36409;52.168;20.878;2023-11-21T11:55:11;19.60;;;13.10;;
50483;SDS011;36409;52.168;20.878;2023-11-21T11:57:43;21.20;;;13.73;;
50483;SDS011;36409;52.168;20.878;2023-11-21T12:00:15;25.33;;;14.73;;
50483;SDS011;36409;52.168;20.878;2023-11-21T12:02:48;24.60;;;15.00;;
50483;SDS011;36409;52.168;20.878;2023-11-21T12:05:19;26.00;;;15.63;;
50483;SDS011;36409;52.168;20.878;2023-11-21T12:07:51;27.83;;;14.77;;
50483;SDS011;36409;52.168;20.878;2023-11-21T12:10:22;24.83;;;15.37;;
50483;SDS011;36409;52.168;20.878;2023-11-21T12:13:03;23.40;;;14.37;;
50483;SDS011;36409;52.168;20.878;2023-11-21T12:15:39;22.90;;;14.77;;
50483;SDS011;36409;52.168;20.878;2023-11-21T12:18:10;24.23;;;14.50;;
50483;SDS011;36409;52.168;20.878;2023-11-21T12:20:40;25.25;;;15.05;;
50483;SDS011;36409;52.168;20.878;2023-11-21T12:23:10;22.07;;;14.17;;
50483;SDS011;36409;52.168;20.878;2023-11-21T12:25:42;22.25;;;14.45;;
50483;SDS011;36409;52.168;20.878;2023-11-21T12:28:11;29.07;;;17.57;;
50483;SDS011;36409;52.168;20.878;2023-11-21T12:30:41;24.30;;;14.73;;
50483;SDS011;36409;52.168;20.878;2023-11-21T12:33:11;29.83;;;15.13;;
50483;SDS011;36409;52.168;20.878;2023-11-21T12:35:44;26.87;;;16.03;;
50483;SDS011;36409;52.168;20.878;2023-11-21T12:38:14;22.90;;;15.53;;
50483;SDS011;36409;52.168;20.878;2023-11-21T12:40:46;27.20;;;15.00;;
50483;SDS011;36409;52.168;20.878;2023-11-21T12:43:15;31.63;;;16.10;;
50483;SDS011;36409;52.168;20.878;2023-11-21T12:45:46;29.53;;;15.73;;
50483;SDS011;36409;52.168;20.878;2023-11-21T12:48:15;32.10;;;16.20;;
50483;SDS011;36409;52.168;20.878;2023-11-21T12:53:43;25.27;;;14.83;;
50483;SDS011;36409;52.168;20.878;2023-11-21T12:56:14;24.63;;;14.97;;
50483;SDS011;36409;52.168;20.878;2023-11-21T12:58:45;23.93;;;15.13;;
50483;SDS011;36409;52.168;20.878;2023-11-21T13:01:14;24.30;;;15.57;;
50483;SDS011;36409;52.168;20.878;2023-11-21T13:03:50;24.70;;;13.57;;
50483;SDS011;36409;52.168;20.878;2023-11-21T13:06:19;27.33;;;15.57;;
50483;SDS011;36409;52.168;20.878;2023-11-21T13:08:52;24.97;;;15.50;;
50483;SDS011;36409;52.168;20.878;2023-11-21T13:11:24;27.87;;;17.00;;
50483;SDS011;36409;52.168;20.878;2023-11-21T13:13:55;27.70;;;16.97;;
50483;SDS011;36409;52.168;20.878;2023-11-21T13:16:24;35.60;;;19.13;;
50483;SDS011;36409;52.168;20.878;2023-11-21T13:18:55;32.20;;;18.00;;
50483;SDS011;36409;52.168;20.878;2023-11-21T13:21:25;26.93;;;15.43;;
50483;SDS011;36409;52.168;20.878;2023-11-21T13:23:54;26.27;;;17.13;;
50483;SDS011;36409;52.168;20.878;2023-11-21T13:26:24;28.17;;;16.13;;
50483;SDS011;36409;52.168;20.878;2023-11-21T13:28:54;24.27;;;15.53;;
50483;SDS011;36409;52.168;20.878;2023-11-21T13:31:26;30.93;;;17.97;;
50483;SDS011;36409;52.168;20.878;2023-11-21T13:33:59;28.70;;;17.20;;
50483;SDS011;36409;52.168;20.878;2023-11-21T13:36:33;29.40;;;17.30;;
50483;SDS011;36409;52.168;20.878;2023-11-21T13:39:03;27.57;;;16.07;;
50483;SDS011;36409;52.168;20.878;2023-11-21T13:41:36;22.40;;;14.87;;
50483;SDS011;36409;52.168;20.878;2023-11-21T13:44:06;25.97;;;16.30;;
50483;SDS011;36409;52.168;20.878;2023-11-21T13:46:43;24.20;;;16.70;;
50483;SDS011;36409;52.168;20.878;2023-11-21T13:49:15;28.37;;;16.50;;
50483;SDS011;36409;52.168;20.878;2023-11-21T13:51:44;25.00;;;16.97;;
50483;SDS011;36409;52.168;20.878;2023-11-21T13:56:51;28.93;;;15.67;;
50483;SDS011;36409;52.168;20.878;2023-11-21T13:59:23;27.57;;;16.90;;
50483;SDS011;36409;52.168;20.878;2023-11-21T14:01:57;25.03;;;15.30;;
50483;SDS011;36409;52.168;20.878;2023-11-21T14:04:40;28.10;;;17.30;;
50483;SDS011;36409;52.168;20.878;2023-11-21T14:07:24;26.70;;;15.90;;
50483;SDS011;36409;52.168;20.878;2023-11-21T14:10:00;27.50;;;17.17;;
50483;SDS011;36409;52.168;20.878;2023-11-21T14:12:30;27.87;;;18.23;;
50483;SDS011;36409;52.168;20.878;2023-11-21T14:15:07;28.40;;;17.35;;
50483;SDS011;36409;52.168;20.878;2023-11-21T14:17:39;29.70;;;17.40;;
50483;SDS011;36409;52.168;20.878;2023-11-21T14:20:10;26.90;;;16.47;;
50483;SDS011;36409;52.168;20.878;2023-11-21T14:22:43;27.67;;;17.30;;
50483;SDS011;36409;52.168;20.878;2023-11-21T14:25:14;27.90;;;17.23;;
50483;SDS011;36409;52.168;20.878;2023-11-21T14:27:44;30.05;;;17.40;;
50483;SDS011;36409;52.168;20.878;2023-11-21T14:30:14;31.07;;;17.80;;
50483;SDS011;36409;52.168;20.878;2023-11-21T14:32:46;27.43;;;16.33;;
50483;SDS011;36409;52.168;20.878;2023-11-21T14:35:16;29.70;;;17.70;;